createdAt,value
2022-09-03T00:01:59.070Z,11.20
2022-09-03T00:04:33.207Z,11.10
2022-09-03T00:07:11.945Z,11.00
2022-09-03T00:09:49.542Z,11.00
2022-09-03T00:12:26.478Z,10.90
2022-09-03T00:15:15.951Z,10.80
2022-09-03T00:17:49.289Z,10.80
2022-09-03T00:20:39.450Z,10.80
2022-09-03T00:23:28.620Z,10.90
2022-09-03T00:26:14.083Z,11.00
2022-09-03T00:29:18.371Z,10.90
2022-09-03T00:31:53.558Z,10.90
2022-09-03T00:34:51.362Z,10.90
2022-09-03T00:37:18.285Z,10.90
2022-09-03T00:39:45.799Z,10.90
2022-09-03T00:42:43.807Z,10.80
2022-09-03T00:45:22.619Z,10.70
2022-09-03T00:48:06.658Z,10.60
2022-09-03T00:51:02.384Z,10.60
2022-09-03T00:53:56.832Z,10.50
2022-09-03T00:56:41.208Z,10.50
2022-09-03T00:59:11.039Z,10.40
2022-09-03T01:02:30.191Z,10.40
2022-09-03T01:05:06.508Z,10.40
2022-09-03T01:07:43.007Z,10.40
2022-09-03T01:10:28.762Z,10.40
2022-09-03T01:13:10.131Z,10.40
2022-09-03T01:16:15.336Z,10.30
2022-09-03T01:18:54.512Z,10.20
2022-09-03T01:21:37.050Z,10.20
2022-09-03T01:24:29.994Z,10.20
2022-09-03T01:27:03.975Z,10.20
2022-09-03T01:30:06.154Z,10.10
2022-09-03T01:32:45.897Z,10.10
2022-09-03T01:35:49.046Z,10.10
2022-09-03T01:38:18.642Z,10.10
2022-09-03T01:41:20.957Z,10.00
2022-09-03T01:44:04.233Z,10.00
2022-09-03T01:46:40.205Z,10.00
2022-09-03T01:49:22.620Z,10.00
2022-09-03T01:52:29.713Z,10.00
2022-09-03T01:55:27.462Z,10.00
2022-09-03T01:58:06.319Z,9.90
2022-09-03T02:00:36.026Z,9.90
2022-09-03T02:03:07.808Z,9.90
2022-09-03T02:05:35.250Z,9.90
2022-09-03T02:08:05.595Z,9.80
2022-09-03T02:10:45.452Z,9.80
2022-09-03T02:13:26.585Z,9.80
2022-09-03T02:15:57.241Z,9.80
2022-09-03T02:18:36.854Z,9.90
2022-09-03T02:21:04.904Z,9.80
2022-09-03T02:23:32.006Z,9.80
2022-09-03T02:26:03.782Z,9.70
2022-09-03T02:28:32.417Z,9.70
2022-09-03T02:30:59.453Z,9.60
2022-09-03T02:33:27.130Z,9.60
2022-09-03T02:35:55.240Z,9.60
2022-09-03T02:38:28.447Z,9.60
2022-09-03T02:40:55.938Z,9.70
2022-09-03T02:43:45.594Z,9.70
2022-09-03T02:46:22.927Z,9.70
2022-09-03T02:48:49.886Z,9.70
2022-09-03T02:51:16.787Z,9.70
2022-09-03T02:53:44.797Z,9.60
2022-09-03T02:56:12.454Z,9.60
2022-09-03T02:58:39.397Z,9.60
2022-09-03T03:01:06.651Z,9.50
2022-09-03T03:03:33.791Z,9.50
2022-09-03T03:06:06.236Z,9.50
2022-09-03T03:08:34.810Z,9.60
2022-09-03T03:11:02.278Z,9.60
2022-09-03T03:13:31.224Z,9.60
2022-09-03T03:16:03.648Z,9.60
2022-09-03T03:18:30.595Z,9.60
2022-09-03T03:20:57.663Z,9.60
2022-09-03T03:23:24.651Z,9.50
2022-09-03T03:25:51.803Z,9.50
2022-09-03T03:28:20.366Z,9.50
2022-09-03T03:30:48.695Z,9.40
2022-09-03T03:33:15.905Z,9.40
2022-09-03T03:35:42.902Z,9.30
2022-09-03T03:38:10.142Z,9.30
2022-09-03T03:40:39.042Z,9.30
2022-09-03T03:43:05.898Z,9.20
2022-09-03T03:45:33.031Z,9.30
2022-09-03T03:48:00.011Z,9.20
2022-09-03T03:50:28.019Z,9.20
2022-09-03T03:52:54.913Z,9.20
2022-09-03T03:55:21.846Z,9.30
2022-09-03T03:57:48.695Z,9.30
2022-09-03T04:00:16.078Z,9.30
2022-09-03T04:02:43.209Z,9.30
2022-09-03T04:05:10.533Z,9.30
2022-09-03T04:07:38.588Z,9.30
2022-09-03T04:10:06.120Z,9.30
2022-09-03T04:12:33.357Z,9.30
2022-09-03T04:15:00.229Z,9.40
2022-09-03T04:17:28.534Z,9.40
2022-09-03T04:19:55.375Z,9.30
2022-09-03T04:22:22.374Z,9.30
2022-09-03T04:24:49.267Z,9.20
2022-09-03T04:27:16.127Z,9.20
2022-09-03T04:29:42.994Z,9.20
2022-09-03T04:32:28.628Z,9.20
2022-09-03T04:34:55.630Z,9.20
2022-09-03T04:37:22.523Z,9.30
2022-09-03T04:39:49.509Z,9.30
2022-09-03T04:42:16.395Z,9.30
2022-09-03T04:44:43.266Z,9.40
2022-09-03T04:47:10.168Z,9.40
2022-09-03T04:49:37.102Z,9.50
2022-09-03T04:52:04.135Z,9.50
2022-09-03T04:54:31.584Z,9.60
2022-09-03T04:56:58.498Z,9.70
2022-09-03T04:59:25.433Z,9.80
2022-09-03T05:01:52.878Z,9.90
2022-09-03T05:04:19.938Z,9.90
2022-09-03T05:06:46.850Z,10.00
2022-09-03T05:09:13.867Z,10.00
2022-09-03T05:11:40.851Z,10.10
2022-09-03T05:14:11.812Z,10.10
2022-09-03T05:16:39.182Z,10.20
2022-09-03T05:19:06.186Z,10.20
2022-09-03T05:21:33.347Z,10.20
2022-09-03T05:24:01.246Z,10.30
2022-09-03T05:26:31.389Z,10.20
2022-09-03T05:29:00.762Z,10.20
2022-09-03T05:31:31.627Z,10.20
2022-09-03T05:34:01.569Z,10.20
2022-09-03T05:36:34.832Z,10.20
2022-09-03T05:39:02.065Z,10.40
2022-09-03T05:41:29.825Z,10.50
2022-09-03T05:43:59.443Z,10.70
2022-09-03T05:46:34.167Z,10.80
2022-09-03T05:49:02.666Z,11.00
2022-09-03T05:51:30.526Z,11.10
2022-09-03T05:53:58.444Z,11.30
2022-09-03T05:56:27.365Z,11.40
2022-09-03T05:58:56.845Z,11.50
2022-09-03T06:01:26.174Z,11.70
2022-09-03T06:03:57.828Z,11.80
2022-09-03T06:06:26.311Z,11.90
2022-09-03T06:09:02.686Z,12.00
2022-09-03T06:11:31.113Z,12.10
2022-09-03T06:14:01.462Z,12.20
2022-09-03T06:16:30.778Z,12.30
2022-09-03T06:19:02.382Z,12.50
2022-09-03T06:21:30.123Z,12.60
2022-09-03T06:23:59.677Z,12.70
2022-09-03T06:26:29.242Z,12.90
2022-09-03T06:28:57.441Z,13.00
2022-09-03T06:31:24.942Z,13.20
2022-09-03T06:33:55.106Z,13.30
2022-09-03T06:36:24.103Z,13.40
2022-09-03T06:38:56.014Z,13.60
2022-09-03T06:41:25.375Z,13.70
2022-09-03T06:43:54.763Z,13.80
2022-09-03T06:46:24.036Z,14.00
2022-09-03T06:48:51.789Z,14.10
2022-09-03T06:51:22.150Z,14.20
2022-09-03T06:53:54.605Z,14.30
2022-09-03T06:56:26.499Z,14.50
2022-09-03T06:58:57.204Z,14.60
2022-09-03T07:01:26.879Z,14.70
2022-09-03T07:03:56.552Z,14.80
2022-09-03T07:06:25.929Z,14.80
2022-09-03T07:08:53.349Z,15.00
2022-09-03T07:11:23.517Z,15.10
2022-09-03T07:13:52.154Z,15.10
2022-09-03T07:16:21.806Z,15.20
2022-09-03T07:18:49.769Z,15.40
2022-09-03T07:21:21.679Z,15.50
2022-09-03T07:23:50.074Z,15.60
2022-09-03T07:26:20.017Z,15.70
2022-09-03T07:28:48.915Z,15.80
2022-09-03T07:31:25.726Z,16.00
2022-09-03T07:33:56.853Z,16.00
2022-09-03T07:36:26.235Z,16.20
2022-09-03T07:38:56.868Z,16.30
2022-09-03T07:41:28.797Z,16.50
2022-09-03T07:43:57.220Z,16.60
2022-09-03T07:46:27.361Z,16.70
2022-09-03T07:48:56.953Z,16.90
2022-09-03T07:51:26.669Z,17.00
2022-09-03T07:53:58.199Z,17.20
2022-09-03T07:56:27.055Z,17.30
2022-09-03T07:58:57.099Z,17.40
2022-09-03T08:01:26.270Z,17.50
2022-09-03T08:03:54.249Z,17.50
2022-09-03T08:06:26.370Z,17.60
2022-09-03T08:09:04.910Z,17.80
2022-09-03T08:11:39.632Z,17.90
2022-09-03T08:14:09.090Z,18.10
2022-09-03T08:16:39.683Z,18.10
2022-09-03T08:19:07.672Z,18.20
2022-09-03T08:21:35.336Z,18.30
2022-09-03T08:24:03.031Z,18.50
2022-09-03T08:26:35.230Z,18.60
2022-09-03T08:29:02.893Z,18.70
2022-09-03T08:31:31.000Z,18.70
2022-09-03T08:33:59.395Z,18.80
2022-09-03T08:36:32.723Z,19.00
2022-09-03T08:39:04.460Z,19.10
2022-09-03T08:41:46.027Z,19.20
2022-09-03T08:44:19.955Z,19.30
2022-09-03T08:46:52.172Z,19.40
2022-09-03T08:49:46.649Z,19.50
2022-09-03T08:52:26.361Z,19.60
2022-09-03T08:54:59.654Z,19.70
2022-09-03T08:57:26.787Z,19.70
2022-09-03T08:59:56.543Z,19.70
2022-09-03T09:02:37.618Z,19.80
2022-09-03T09:05:23.610Z,19.90
2022-09-03T09:08:23.043Z,20.10
2022-09-03T09:11:05.732Z,20.10
2022-09-03T09:13:48.762Z,20.20
2022-09-03T09:16:30.999Z,20.30
2022-09-03T09:19:39.194Z,20.20
2022-09-03T09:22:11.344Z,20.40
2022-09-03T09:24:45.145Z,20.50
2022-09-03T09:27:17.311Z,20.60
2022-09-03T09:29:48.935Z,20.70
2022-09-03T09:32:18.949Z,20.80
2022-09-03T09:34:51.990Z,20.90
2022-09-03T09:37:19.954Z,20.90
2022-09-03T09:39:59.437Z,21.20
2022-09-03T09:42:27.707Z,21.20
2022-09-03T09:44:54.559Z,21.30
2022-09-03T09:47:31.721Z,21.40
2022-09-03T09:50:01.138Z,21.20
2022-09-03T09:52:31.616Z,21.20
2022-09-03T09:55:17.823Z,21.20
2022-09-03T09:57:45.257Z,21.10
2022-09-03T10:00:16.105Z,21.00
2022-09-03T10:02:51.532Z,21.30
2022-09-03T10:05:36.848Z,21.60
2022-09-03T10:08:19.762Z,21.70
2022-09-03T10:10:49.824Z,21.90
2022-09-03T10:13:26.759Z,22.10
2022-09-03T10:15:56.598Z,22.30
2022-09-03T10:18:37.167Z,22.50
2022-09-03T10:21:23.936Z,22.70
2022-09-03T10:24:25.813Z,22.60
2022-09-03T10:26:52.689Z,22.50
2022-09-03T10:29:22.750Z,22.50
2022-09-03T10:32:25.561Z,22.60
2022-09-03T10:35:19.354Z,22.60
2022-09-03T10:38:07.314Z,22.20
2022-09-03T10:40:43.276Z,22.20
2022-09-03T10:43:41.853Z,22.40
2022-09-03T10:46:23.807Z,22.60
2022-09-03T10:49:14.177Z,22.90
2022-09-03T10:51:56.155Z,23.20
2022-09-03T10:55:00.576Z,23.50
2022-09-03T10:57:33.286Z,23.60
2022-09-03T11:00:14.784Z,23.60
2022-09-03T11:03:21.093Z,23.70
2022-09-03T11:06:10.970Z,23.90
2022-09-03T11:08:47.358Z,23.90
2022-09-03T11:11:21.813Z,23.90
2022-09-03T11:14:03.707Z,23.80
2022-09-03T11:16:50.274Z,23.80
2022-09-03T11:19:20.186Z,23.80
2022-09-03T11:21:49.817Z,23.50
2022-09-03T11:24:22.966Z,23.60
2022-09-03T11:27:10.871Z,23.70
2022-09-03T11:29:42.141Z,23.40
2022-09-03T11:32:31.214Z,23.50
2022-09-03T11:34:58.080Z,23.40
2022-09-03T11:37:27.531Z,23.30
2022-09-03T11:40:08.057Z,23.40
2022-09-03T11:42:41.517Z,23.60
2022-09-03T11:45:30.310Z,23.80
2022-09-03T11:47:57.525Z,24.10
2022-09-03T11:50:28.991Z,24.50
2022-09-03T11:53:16.570Z,24.90
2022-09-03T11:55:55.232Z,25.20
2022-09-03T11:58:28.598Z,25.40
2022-09-03T12:00:56.390Z,25.50
2022-09-03T12:03:28.620Z,25.80
2022-09-03T12:06:06.972Z,25.80
2022-09-03T12:08:47.216Z,25.80
2022-09-03T12:11:44.292Z,26.00
2022-09-03T12:14:29.050Z,26.10
2022-09-03T12:17:17.432Z,26.10
2022-09-03T12:19:52.895Z,26.00
2022-09-03T12:22:21.715Z,25.90
2022-09-03T12:24:50.866Z,25.80
2022-09-03T12:27:24.718Z,25.60
2022-09-03T12:30:02.907Z,25.40
2022-09-03T12:32:37.196Z,25.10
2022-09-03T12:38:11.953Z,25.40
2022-09-03T12:43:39.471Z,26.10
2022-09-03T12:46:17.747Z,26.20
2022-09-03T12:51:52.203Z,26.20
2022-09-03T12:54:21.201Z,25.70
2022-09-03T12:56:56.490Z,25.60
2022-09-03T12:59:26.661Z,25.40
2022-09-03T13:01:58.770Z,25.30
2022-09-03T13:04:30.230Z,25.40
2022-09-03T13:07:03.734Z,25.50
2022-09-03T13:09:33.326Z,25.50
2022-09-03T13:12:01.865Z,25.50
2022-09-03T13:14:28.743Z,25.50
2022-09-03T13:17:17.979Z,25.60
2022-09-03T13:19:44.846Z,25.60
2022-09-03T13:22:17.161Z,25.50
2022-09-03T13:25:09.865Z,25.60
2022-09-03T13:28:07.591Z,25.60
2022-09-03T13:31:16.225Z,25.70
2022-09-03T13:33:52.700Z,25.80
2022-09-03T13:36:26.016Z,26.10
2022-09-03T13:38:59.092Z,26.00
2022-09-03T13:41:42.118Z,26.20
2022-09-03T13:44:37.956Z,26.20
2022-09-03T13:47:23.565Z,26.00
2022-09-03T13:50:21.205Z,25.70
2022-09-03T13:53:21.610Z,25.50
2022-09-03T13:56:05.297Z,25.40
2022-09-03T13:58:46.703Z,25.30
2022-09-03T14:01:51.770Z,25.20
2022-09-03T14:04:28.127Z,25.30
2022-09-03T14:06:59.330Z,25.60
2022-09-03T14:09:52.193Z,25.70
2022-09-03T14:12:29.079Z,25.80
2022-09-03T14:15:02.681Z,25.90
2022-09-03T14:17:41.596Z,25.80
2022-09-03T14:20:16.795Z,26.00
2022-09-03T14:23:17.614Z,25.90
2022-09-03T14:25:54.187Z,25.80
2022-09-03T14:28:31.910Z,25.90
2022-09-03T14:31:07.647Z,25.90
2022-09-03T14:34:14.499Z,25.60
2022-09-03T14:36:45.975Z,25.40
2022-09-03T14:39:28.367Z,25.20
2022-09-03T14:42:21.204Z,25.20
2022-09-03T14:45:21.198Z,24.90
2022-09-03T14:47:51.053Z,24.90
2022-09-03T14:50:36.374Z,25.20
2022-09-03T14:53:12.334Z,25.20
2022-09-03T14:56:05.636Z,25.20
2022-09-03T14:58:47.455Z,25.10
2022-09-03T15:01:18.929Z,25.10
2022-09-03T15:03:57.824Z,25.20
2022-09-03T15:06:33.638Z,24.90
2022-09-03T15:09:31.074Z,24.70
2022-09-03T15:12:18.383Z,24.80
2022-09-03T15:14:58.948Z,25.00
2022-09-03T15:17:25.750Z,25.00
2022-09-03T15:19:52.611Z,24.90
2022-09-03T15:22:22.247Z,24.80
2022-09-03T15:25:05.095Z,24.90
2022-09-03T15:27:59.970Z,25.00
2022-09-03T15:30:41.175Z,25.10
2022-09-03T15:33:13.781Z,24.90
2022-09-03T15:35:52.658Z,24.70
2022-09-03T15:38:52.918Z,24.70
2022-09-03T15:41:35.899Z,24.70
2022-09-03T15:44:09.041Z,24.60
2022-09-03T15:46:45.147Z,24.50
2022-09-03T15:49:35.280Z,24.40
2022-09-03T15:52:24.861Z,24.20
2022-09-03T15:55:30.301Z,24.10
2022-09-03T15:58:10.478Z,24.00
2022-09-03T16:00:53.204Z,23.90
2022-09-03T16:03:35.193Z,23.80
2022-09-03T16:06:06.594Z,23.80
2022-09-03T16:08:52.555Z,23.70
2022-09-03T16:11:48.795Z,23.50
2022-09-03T16:14:30.881Z,23.30
2022-09-03T16:17:22.776Z,23.00
2022-09-03T16:19:57.052Z,22.80
2022-09-03T16:22:33.058Z,22.70
2022-09-03T16:25:03.215Z,22.50
2022-09-03T16:27:40.446Z,22.30
2022-09-03T16:30:12.213Z,22.30
2022-09-03T16:33:12.311Z,22.10
2022-09-03T16:35:45.204Z,21.90
2022-09-03T16:38:17.264Z,21.80
2022-09-03T16:41:19.339Z,21.80
2022-09-03T16:44:17.739Z,21.70
2022-09-03T16:47:09.161Z,21.50
2022-09-03T16:49:38.987Z,21.40
2022-09-03T16:52:54.158Z,21.40
2022-09-03T16:55:26.195Z,21.30
2022-09-03T16:58:13.034Z,21.20
2022-09-03T17:01:07.636Z,21.10
2022-09-03T17:04:25.651Z,21.10
2022-09-03T17:07:08.771Z,21.10
2022-09-03T17:10:03.718Z,21.10
2022-09-03T17:12:39.507Z,21.00
2022-09-03T17:15:36.103Z,21.00
2022-09-03T17:18:15.951Z,20.90
2022-09-03T17:21:05.184Z,20.90
2022-09-03T17:23:46.851Z,20.80
2022-09-03T17:26:16.829Z,20.80
2022-09-03T17:29:08.513Z,20.70
2022-09-03T17:31:51.740Z,20.70
2022-09-03T17:34:30.178Z,20.70
2022-09-03T17:37:11.500Z,20.60
2022-09-03T17:40:15.230Z,20.60
2022-09-03T17:43:07.970Z,20.50
2022-09-03T17:45:56.330Z,20.40
2022-09-03T17:48:51.491Z,20.40
2022-09-03T17:51:47.562Z,20.40
2022-09-03T17:54:32.309Z,20.30
2022-09-03T17:57:30.758Z,20.30
2022-09-03T18:00:10.533Z,20.20
2022-09-03T18:02:58.518Z,20.20
2022-09-03T18:05:30.739Z,20.20
2022-09-03T18:08:20.143Z,20.20
2022-09-03T18:10:58.839Z,20.10
2022-09-03T18:13:43.608Z,20.00
2022-09-03T18:16:16.821Z,19.90
2022-09-03T18:18:52.562Z,19.80
2022-09-03T18:21:43.743Z,19.80
2022-09-03T18:24:50.645Z,19.70
2022-09-03T18:27:57.563Z,19.60
2022-09-03T18:30:43.851Z,19.50
2022-09-03T18:33:31.972Z,19.50
2022-09-03T18:36:18.245Z,19.50
2022-09-03T18:39:03.610Z,19.40
2022-09-03T18:42:17.213Z,19.40
2022-09-03T18:45:56.302Z,19.40
2022-09-03T18:49:00.611Z,19.30
2022-09-03T18:52:04.790Z,19.20
2022-09-03T18:55:13.982Z,19.20
2022-09-03T18:58:14.848Z,19.10
2022-09-03T19:01:18.079Z,19.00
2022-09-03T19:04:35.271Z,18.90
2022-09-03T19:08:00.136Z,18.90
2022-09-03T19:11:10.722Z,19.00
2022-09-03T19:13:58.550Z,19.00
2022-09-03T19:17:13.205Z,19.00
2022-09-03T19:20:36.595Z,19.00
2022-09-03T19:23:22.755Z,19.00
2022-09-03T19:26:10.542Z,18.90
2022-09-03T19:29:02.852Z,18.80
2022-09-03T19:31:57.259Z,18.70
2022-09-03T19:34:51.442Z,18.50
2022-09-03T19:37:39.761Z,18.40
2022-09-03T19:40:49.986Z,18.20
2022-09-03T19:43:47.448Z,18.10
2022-09-03T19:46:56.478Z,18.00
2022-09-03T19:49:51.506Z,18.00
2022-09-03T19:52:55.603Z,17.90
2022-09-03T19:55:45.509Z,17.90
2022-09-03T19:58:43.150Z,17.90
2022-09-03T20:01:30.510Z,17.90
2022-09-03T20:04:22.155Z,17.80
2022-09-03T20:07:07.627Z,17.70
2022-09-03T20:09:59.854Z,17.70
2022-09-03T20:12:31.172Z,17.70
2022-09-03T20:14:58.058Z,17.60
2022-09-03T20:18:03.336Z,17.60
2022-09-03T20:21:06.814Z,17.60
2022-09-03T20:23:45.059Z,17.50
2022-09-03T20:26:32.155Z,17.40
2022-09-03T20:29:17.497Z,17.30
2022-09-03T20:31:59.364Z,17.30
2022-09-03T20:34:32.890Z,17.30
2022-09-03T20:37:09.932Z,17.30
2022-09-03T20:39:45.994Z,17.30
2022-09-03T20:42:31.709Z,17.30
2022-09-03T20:45:44.183Z,17.30
2022-09-03T20:48:36.496Z,17.30
2022-09-03T20:51:22.740Z,17.30
2022-09-03T20:54:08.877Z,17.30
2022-09-03T20:57:14.531Z,17.30
2022-09-03T21:00:02.818Z,17.20
2022-09-03T21:02:48.097Z,17.20
2022-09-03T21:05:29.731Z,17.20
2022-09-03T21:08:36.115Z,17.20
2022-09-03T21:11:10.394Z,17.20
2022-09-03T21:13:59.942Z,17.20
2022-09-03T21:16:42.983Z,17.20
2022-09-03T21:19:36.251Z,17.20
2022-09-03T21:22:18.036Z,17.20
2022-09-03T21:24:49.177Z,17.20
2022-09-03T21:27:24.255Z,17.20
2022-09-03T21:30:01.139Z,17.20
2022-09-03T21:33:02.664Z,17.10
2022-09-03T21:35:47.511Z,17.10
2022-09-03T21:38:25.680Z,17.10
2022-09-03T21:41:00.859Z,17.10
2022-09-03T21:43:52.549Z,17.10
2022-09-03T21:46:24.122Z,17.10
2022-09-03T21:49:13.191Z,17.00
2022-09-03T21:52:00.795Z,17.00
2022-09-03T21:54:35.962Z,17.00
2022-09-03T21:57:56.636Z,17.00
2022-09-03T22:00:32.811Z,17.00
2022-09-03T22:03:00.798Z,17.00
2022-09-03T22:05:54.251Z,17.00
2022-09-03T22:08:39.132Z,17.10
2022-09-03T22:11:14.115Z,17.10
2022-09-03T22:13:49.927Z,17.00
2022-09-03T22:16:39.148Z,17.00
2022-09-03T22:19:07.865Z,17.00
2022-09-03T22:21:59.872Z,17.00
2022-09-03T22:24:36.450Z,17.00
2022-09-03T22:27:26.582Z,16.90
2022-09-03T22:30:03.382Z,16.90
2022-09-03T22:32:45.664Z,17.00
2022-09-03T22:35:50.825Z,17.00
2022-09-03T22:38:48.391Z,17.00
2022-09-03T22:41:56.259Z,17.00
2022-09-03T22:44:51.190Z,17.00
2022-09-03T22:47:26.967Z,17.10
2022-09-03T22:50:12.022Z,17.10
2022-09-03T22:52:46.371Z,17.10
2022-09-03T22:55:23.193Z,17.10
2022-09-03T22:58:10.287Z,17.10
2022-09-03T23:00:58.083Z,17.10
2022-09-03T23:03:33.919Z,17.10
2022-09-03T23:06:14.419Z,17.10
2022-09-03T23:08:52.858Z,17.10
2022-09-03T23:11:27.699Z,17.10
2022-09-03T23:14:09.855Z,17.10
2022-09-03T23:16:46.636Z,17.10
2022-09-03T23:19:43.126Z,17.00
2022-09-03T23:22:13.312Z,17.00
2022-09-03T23:25:10.707Z,17.00
2022-09-03T23:27:43.249Z,16.90
2022-09-03T23:30:10.661Z,16.90
2022-09-03T23:32:37.630Z,16.80
2022-09-03T23:35:13.235Z,16.80
2022-09-03T23:37:53.426Z,16.70
2022-09-03T23:40:38.766Z,16.70
2022-09-03T23:43:23.931Z,16.60
2022-09-03T23:46:10.022Z,16.50
2022-09-03T23:49:06.944Z,16.40
2022-09-03T23:51:48.687Z,16.30
2022-09-03T23:54:39.397Z,16.20
2022-09-03T23:57:33.546Z,16.10
